sensor_id;sensor_type;location;lat;lon;timestamp;P1;durP1;ratioP1;P2;durP2;ratioP2
25962;SDS011;13760;52.588;13.406;2023-04-16T00:01:00;78.40;;;46.75;;
25962;SDS011;13760;52.588;13.406;2023-04-16T00:03:28;94.60;;;48.83;;
25962;SDS011;13760;52.588;13.406;2023-04-16T00:06:00;114.25;;;51.15;;
25962;SDS011;13760;52.588;13.406;2023-04-16T00:08:26;103.72;;;50.20;;
25962;SDS011;13760;52.588;13.406;2023-04-16T00:10:59;105.97;;;51.33;;
25962;SDS011;13760;52.588;13.406;2023-04-16T00:13:31;91.05;;;48.03;;
25962;SDS011;13760;52.588;13.406;2023-04-16T00:16:00;103.20;;;50.55;;
25962;SDS011;13760;52.588;13.406;2023-04-16T00:18:37;100.93;;;51.03;;
25962;SDS011;13760;52.588;13.406;2023-04-16T00:21:04;104.60;;;51.40;;
25962;SDS011;13760;52.588;13.406;2023-04-16T00:23:30;101.88;;;51.67;;
25962;SDS011;13760;52.588;13.406;2023-04-16T00:26:00;92.47;;;50.60;;
25962;SDS011;13760;52.588;13.406;2023-04-16T00:31:35;96.53;;;49.83;;
25962;SDS011;13760;52.588;13.406;2023-04-16T00:34:19;98.63;;;50.58;;
25962;SDS011;13760;52.588;13.406;2023-04-16T00:36:48;101.43;;;51.67;;
25962;SDS011;13760;52.588;13.406;2023-04-16T00:39:38;111.50;;;53.20;;
25962;SDS011;13760;52.588;13.406;2023-04-16T00:42:25;113.40;;;53.83;;
25962;SDS011;13760;52.588;13.406;2023-04-16T00:44:54;103.20;;;52.63;;
25962;SDS011;13760;52.588;13.406;2023-04-16T00:47:23;111.18;;;53.75;;
25962;SDS011;13760;52.588;13.406;2023-04-16T00:49:51;105.93;;;52.00;;
25962;SDS011;13760;52.588;13.406;2023-04-16T00:52:17;98.18;;;51.67;;
25962;SDS011;13760;52.588;13.406;2023-04-16T00:54:43;111.13;;;53.40;;
25962;SDS011;13760;52.588;13.406;2023-04-16T00:57:12;98.68;;;51.67;;
25962;SDS011;13760;52.588;13.406;2023-04-16T00:59:43;109.88;;;52.20;;
25962;SDS011;13760;52.588;13.406;2023-04-16T01:02:09;89.25;;;49.35;;
25962;SDS011;13760;52.588;13.406;2023-04-16T01:04:38;103.78;;;51.38;;
25962;SDS011;13760;52.588;13.406;2023-04-16T01:07:04;102.90;;;52.17;;
25962;SDS011;13760;52.588;13.406;2023-04-16T01:09:30;97.28;;;50.78;;
25962;SDS011;13760;52.588;13.406;2023-04-16T01:11:58;106.22;;;53.53;;
25962;SDS011;13760;52.588;13.406;2023-04-16T01:14:30;100.43;;;51.47;;
25962;SDS011;13760;52.588;13.406;2023-04-16T01:17:00;119.03;;;53.42;;
25962;SDS011;13760;52.588;13.406;2023-04-16T01:19:31;99.32;;;50.70;;
25962;SDS011;13760;52.588;13.406;2023-04-16T01:22:00;110.53;;;53.92;;
25962;SDS011;13760;52.588;13.406;2023-04-16T01:24:26;109.68;;;53.20;;
25962;SDS011;13760;52.588;13.406;2023-04-16T01:26:52;100.13;;;52.10;;
25962;SDS011;13760;52.588;13.406;2023-04-16T01:29:17;98.25;;;50.13;;
25962;SDS011;13760;52.588;13.406;2023-04-16T01:31:52;93.82;;;49.00;;
25962;SDS011;13760;52.588;13.406;2023-04-16T01:34:18;94.75;;;49.40;;
25962;SDS011;13760;52.588;13.406;2023-04-16T01:36:44;108.45;;;50.72;;
25962;SDS011;13760;52.588;13.406;2023-04-16T01:39:10;95.55;;;48.63;;
25962;SDS011;13760;52.588;13.406;2023-04-16T01:41:40;87.93;;;47.00;;
25962;SDS011;13760;52.588;13.406;2023-04-16T01:44:07;84.57;;;45.70;;
25962;SDS011;13760;52.588;13.406;2023-04-16T01:46:33;94.50;;;47.97;;
25962;SDS011;13760;52.588;13.406;2023-04-16T01:49:00;91.80;;;46.75;;
25962;SDS011;13760;52.588;13.406;2023-04-16T01:51:26;83.85;;;45.95;;
25962;SDS011;13760;52.588;13.406;2023-04-16T01:53:53;97.75;;;47.30;;
25962;SDS011;13760;52.588;13.406;2023-04-16T01:56:22;84.43;;;46.10;;
25962;SDS011;13760;52.588;13.406;2023-04-16T01:58:48;94.25;;;47.55;;
25962;SDS011;13760;52.588;13.406;2023-04-16T02:01:13;82.88;;;44.30;;
25962;SDS011;13760;52.588;13.406;2023-04-16T02:03:45;79.18;;;44.92;;
25962;SDS011;13760;52.588;13.406;2023-04-16T02:06:11;84.28;;;45.45;;
25962;SDS011;13760;52.588;13.406;2023-04-16T02:08:37;81.53;;;45.70;;
25962;SDS011;13760;52.588;13.406;2023-04-16T02:11:02;110.70;;;48.72;;
25962;SDS011;13760;52.588;13.406;2023-04-16T02:13:28;101.10;;;49.47;;
25962;SDS011;13760;52.588;13.406;2023-04-16T02:15:54;88.70;;;46.45;;
25962;SDS011;13760;52.588;13.406;2023-04-16T02:18:20;84.60;;;46.47;;
25962;SDS011;13760;52.588;13.406;2023-04-16T02:20:45;82.38;;;46.28;;
25962;SDS011;13760;52.588;13.406;2023-04-16T02:23:13;94.13;;;48.33;;
25962;SDS011;13760;52.588;13.406;2023-04-16T02:25:42;105.65;;;48.72;;
25962;SDS011;13760;52.588;13.406;2023-04-16T02:28:11;102.82;;;48.92;;
25962;SDS011;13760;52.588;13.406;2023-04-16T02:30:38;102.78;;;51.47;;
25962;SDS011;13760;52.588;13.406;2023-04-16T02:33:08;102.67;;;51.13;;
25962;SDS011;13760;52.588;13.406;2023-04-16T02:35:35;104.65;;;51.40;;
25962;SDS011;13760;52.588;13.406;2023-04-16T02:38:02;107.72;;;52.95;;
25962;SDS011;13760;52.588;13.406;2023-04-16T02:40:28;97.97;;;51.13;;
25962;SDS011;13760;52.588;13.406;2023-04-16T02:42:54;106.78;;;51.45;;
25962;SDS011;13760;52.588;13.406;2023-04-16T02:45:20;110.03;;;53.22;;
25962;SDS011;13760;52.588;13.406;2023-04-16T02:47:47;106.65;;;53.03;;
25962;SDS011;13760;52.588;13.406;2023-04-16T02:50:13;104.22;;;52.22;;
25962;SDS011;13760;52.588;13.406;2023-04-16T02:52:38;112.07;;;53.45;;
25962;SDS011;13760;52.588;13.406;2023-04-16T02:55:13;98.38;;;50.22;;
25962;SDS011;13760;52.588;13.406;2023-04-16T02:57:38;95.20;;;50.03;;
25962;SDS011;13760;52.588;13.406;2023-04-16T03:00:06;112.50;;;50.33;;
25962;SDS011;13760;52.588;13.406;2023-04-16T03:02:32;101.78;;;51.20;;
25962;SDS011;13760;52.588;13.406;2023-04-16T03:04:58;103.90;;;50.97;;
25962;SDS011;13760;52.588;13.406;2023-04-16T03:07:23;97.18;;;51.10;;
25962;SDS011;13760;52.588;13.406;2023-04-16T03:09:50;99.70;;;51.72;;
25962;SDS011;13760;52.588;13.406;2023-04-16T03:12:15;105.63;;;51.47;;
25962;SDS011;13760;52.588;13.406;2023-04-16T03:14:41;99.85;;;51.25;;
25962;SDS011;13760;52.588;13.406;2023-04-16T03:17:06;108.30;;;50.10;;
25962;SDS011;13760;52.588;13.406;2023-04-16T03:19:32;111.53;;;50.63;;
25962;SDS011;13760;52.588;13.406;2023-04-16T03:21:58;97.25;;;49.47;;
25962;SDS011;13760;52.588;13.406;2023-04-16T03:24:24;95.40;;;48.15;;
25962;SDS011;13760;52.588;13.406;2023-04-16T03:26:50;96.18;;;48.63;;
25962;SDS011;13760;52.588;13.406;2023-04-16T03:29:15;85.78;;;47.15;;
25962;SDS011;13760;52.588;13.406;2023-04-16T03:31:41;98.30;;;48.35;;
25962;SDS011;13760;52.588;13.406;2023-04-16T03:34:06;86.53;;;45.25;;
25962;SDS011;13760;52.588;13.406;2023-04-16T03:36:32;88.88;;;46.65;;
25962;SDS011;13760;52.588;13.406;2023-04-16T03:38:58;96.80;;;46.17;;
25962;SDS011;13760;52.588;13.406;2023-04-16T03:41:23;95.57;;;45.30;;
25962;SDS011;13760;52.588;13.406;2023-04-16T03:43:49;89.50;;;45.25;;
25962;SDS011;13760;52.588;13.406;2023-04-16T03:46:14;92.38;;;47.20;;
25962;SDS011;13760;52.588;13.406;2023-04-16T03:48:40;102.60;;;47.90;;
25962;SDS011;13760;52.588;13.406;2023-04-16T03:51:08;100.18;;;48.55;;
25962;SDS011;13760;52.588;13.406;2023-04-16T03:53:34;107.13;;;49.22;;
25962;SDS011;13760;52.588;13.406;2023-04-16T03:56:00;115.60;;;51.17;;
25962;SDS011;13760;52.588;13.406;2023-04-16T03:58:25;103.72;;;50.17;;
25962;SDS011;13760;52.588;13.406;2023-04-16T04:00:54;117.88;;;50.75;;
25962;SDS011;13760;52.588;13.406;2023-04-16T04:03:19;98.40;;;48.92;;
25962;SDS011;13760;52.588;13.406;2023-04-16T04:05:45;123.05;;;53.72;;
25962;SDS011;13760;52.588;13.406;2023-04-16T04:08:11;120.25;;;51.83;;
25962;SDS011;13760;52.588;13.406;2023-04-16T04:10:36;117.05;;;52.00;;
25962;SDS011;13760;52.588;13.406;2023-04-16T04:13:03;121.57;;;52.50;;
25962;SDS011;13760;52.588;13.406;2023-04-16T04:15:29;123.15;;;54.03;;
25962;SDS011;13760;52.588;13.406;2023-04-16T04:17:56;117.90;;;52.80;;
25962;SDS011;13760;52.588;13.406;2023-04-16T04:20:22;114.00;;;51.17;;
25962;SDS011;13760;52.588;13.406;2023-04-16T04:22:48;113.43;;;49.42;;
25962;SDS011;13760;52.588;13.406;2023-04-16T04:25:15;112.97;;;50.97;;
25962;SDS011;13760;52.588;13.406;2023-04-16T04:27:43;122.88;;;53.85;;
25962;SDS011;13760;52.588;13.406;2023-04-16T04:30:09;138.73;;;54.35;;
25962;SDS011;13760;52.588;13.406;2023-04-16T04:32:35;116.65;;;54.83;;
25962;SDS011;13760;52.588;13.406;2023-04-16T04:35:01;123.18;;;53.13;;
25962;SDS011;13760;52.588;13.406;2023-04-16T04:37:28;122.40;;;55.95;;
25962;SDS011;13760;52.588;13.406;2023-04-16T04:39:53;125.40;;;53.65;;
25962;SDS011;13760;52.588;13.406;2023-04-16T04:42:22;118.85;;;53.83;;
25962;SDS011;13760;52.588;13.406;2023-04-16T04:44:48;108.57;;;52.75;;
25962;SDS011;13760;52.588;13.406;2023-04-16T04:47:14;125.20;;;53.97;;
25962;SDS011;13760;52.588;13.406;2023-04-16T04:49:40;120.95;;;50.97;;
25962;SDS011;13760;52.588;13.406;2023-04-16T04:52:09;116.00;;;53.05;;
25962;SDS011;13760;52.588;13.406;2023-04-16T04:54:35;129.57;;;53.08;;
25962;SDS011;13760;52.588;13.406;2023-04-16T04:57:01;134.18;;;54.13;;
25962;SDS011;13760;52.588;13.406;2023-04-16T04:59:26;139.48;;;53.40;;
25962;SDS011;13760;52.588;13.406;2023-04-16T05:01:52;121.32;;;53.08;;
25962;SDS011;13760;52.588;13.406;2023-04-16T05:04:18;123.35;;;51.72;;
25962;SDS011;13760;52.588;13.406;2023-04-16T05:06:43;112.93;;;50.58;;
25962;SDS011;13760;52.588;13.406;2023-04-16T05:09:09;116.80;;;50.00;;
25962;SDS011;13760;52.588;13.406;2023-04-16T05:11:39;105.15;;;48.95;;
25962;SDS011;13760;52.588;13.406;2023-04-16T05:14:05;93.32;;;39.90;;
25962;SDS011;13760;52.588;13.406;2023-04-16T05:16:33;126.28;;;50.42;;
25962;SDS011;13760;52.588;13.406;2023-04-16T05:19:00;108.30;;;48.85;;
25962;SDS011;13760;52.588;13.406;2023-04-16T05:21:26;137.65;;;51.75;;
25962;SDS011;13760;52.588;13.406;2023-04-16T05:23:51;114.20;;;48.25;;
25962;SDS011;13760;52.588;13.406;2023-04-16T05:26:17;99.93;;;48.30;;
25962;SDS011;13760;52.588;13.406;2023-04-16T05:28:43;111.47;;;48.63;;
25962;SDS011;13760;52.588;13.406;2023-04-16T05:31:09;113.32;;;48.67;;
25962;SDS011;13760;52.588;13.406;2023-04-16T05:33:36;120.57;;;50.58;;
25962;SDS011;13760;52.588;13.406;2023-04-16T05:36:02;110.05;;;49.42;;
25962;SDS011;13760;52.588;13.406;2023-04-16T05:38:28;102.75;;;47.40;;
25962;SDS011;13760;52.588;13.406;2023-04-16T05:40:57;98.25;;;46.05;;
25962;SDS011;13760;52.588;13.406;2023-04-16T05:43:23;121.63;;;51.20;;
25962;SDS011;13760;52.588;13.406;2023-04-16T05:45:51;94.85;;;47.13;;
25962;SDS011;13760;52.588;13.406;2023-04-16T05:48:17;102.55;;;48.13;;
25962;SDS011;13760;52.588;13.406;2023-04-16T05:50:44;116.68;;;50.10;;
25962;SDS011;13760;52.588;13.406;2023-04-16T05:53:09;107.18;;;48.70;;
25962;SDS011;13760;52.588;13.406;2023-04-16T05:55:37;115.80;;;48.85;;
25962;SDS011;13760;52.588;13.406;2023-04-16T05:58:06;110.95;;;48.80;;
25962;SDS011;13760;52.588;13.406;2023-04-16T06:00:32;105.82;;;48.10;;
25962;SDS011;13760;52.588;13.406;2023-04-16T06:02:58;101.90;;;47.33;;
25962;SDS011;13760;52.588;13.406;2023-04-16T06:05:25;115.72;;;48.58;;
25962;SDS011;13760;52.588;13.406;2023-04-16T06:07:59;106.47;;;46.05;;
25962;SDS011;13760;52.588;13.406;2023-04-16T06:10:25;99.38;;;44.33;;
25962;SDS011;13760;52.588;13.406;2023-04-16T06:12:50;95.18;;;45.25;;
25962;SDS011;13760;52.588;13.406;2023-04-16T06:15:22;104.38;;;45.55;;
25962;SDS011;13760;52.588;13.406;2023-04-16T06:17:48;107.10;;;47.08;;
25962;SDS011;13760;52.588;13.406;2023-04-16T06:20:13;95.80;;;44.45;;
25962;SDS011;13760;52.588;13.406;2023-04-16T06:22:39;115.00;;;46.17;;
25962;SDS011;13760;52.588;13.406;2023-04-16T06:25:05;101.53;;;45.63;;
25962;SDS011;13760;52.588;13.406;2023-04-16T06:27:33;97.53;;;45.13;;
25962;SDS011;13760;52.588;13.406;2023-04-16T06:29:59;110.72;;;47.03;;
25962;SDS011;13760;52.588;13.406;2023-04-16T06:32:25;91.97;;;42.97;;
25962;SDS011;13760;52.588;13.406;2023-04-16T06:34:50;94.75;;;44.25;;
25962;SDS011;13760;52.588;13.406;2023-04-16T06:37:16;92.05;;;42.53;;
25962;SDS011;13760;52.588;13.406;2023-04-16T06:39:41;100.38;;;42.70;;
25962;SDS011;13760;52.588;13.406;2023-04-16T06:42:07;104.32;;;43.65;;
25962;SDS011;13760;52.588;13.406;2023-04-16T06:44:34;96.30;;;43.25;;
25962;SDS011;13760;52.588;13.406;2023-04-16T06:47:00;101.57;;;44.70;;
25962;SDS011;13760;52.588;13.406;2023-04-16T06:49:25;91.35;;;43.92;;
25962;SDS011;13760;52.588;13.406;2023-04-16T06:51:51;117.45;;;46.97;;
25962;SDS011;13760;52.588;13.406;2023-04-16T06:54:20;100.82;;;44.20;;
25962;SDS011;13760;52.588;13.406;2023-04-16T06:56:46;107.45;;;45.65;;
25962;SDS011;13760;52.588;13.406;2023-04-16T06:59:13;94.43;;;44.67;;
25962;SDS011;13760;52.588;13.406;2023-04-16T07:01:57;98.00;;;45.92;;
25962;SDS011;13760;52.588;13.406;2023-04-16T07:08:03;99.13;;;43.13;;
25962;SDS011;13760;52.588;13.406;2023-04-16T07:13:43;93.68;;;42.53;;
25962;SDS011;13760;52.588;13.406;2023-04-16T07:17:04;85.18;;;41.25;;
25962;SDS011;13760;52.588;13.406;2023-04-16T07:19:35;86.88;;;42.33;;
25962;SDS011;13760;52.588;13.406;2023-04-16T07:22:25;106.13;;;42.20;;
25962;SDS011;13760;52.588;13.406;2023-04-16T07:24:50;103.43;;;43.42;;
25962;SDS011;13760;52.588;13.406;2023-04-16T07:27:16;104.07;;;44.78;;
25962;SDS011;13760;52.588;13.406;2023-04-16T07:29:42;87.43;;;43.63;;
25962;SDS011;13760;52.588;13.406;2023-04-16T07:32:10;88.57;;;40.40;;
25962;SDS011;13760;52.588;13.406;2023-04-16T07:34:37;86.80;;;39.80;;
25962;SDS011;13760;52.588;13.406;2023-04-16T07:37:02;84.78;;;39.20;;
25962;SDS011;13760;52.588;13.406;2023-04-16T07:39:28;84.43;;;39.42;;
25962;SDS011;13760;52.588;13.406;2023-04-16T07:41:53;90.57;;;40.33;;
25962;SDS011;13760;52.588;13.406;2023-04-16T07:44:19;106.43;;;43.22;;
25962;SDS011;13760;52.588;13.406;2023-04-16T07:46:45;93.82;;;41.70;;
25962;SDS011;13760;52.588;13.406;2023-04-16T07:49:11;94.07;;;42.17;;
25962;SDS011;13760;52.588;13.406;2023-04-16T07:51:39;91.97;;;42.50;;
25962;SDS011;13760;52.588;13.406;2023-04-16T07:54:05;103.68;;;42.70;;
25962;SDS011;13760;52.588;13.406;2023-04-16T07:56:30;119.50;;;44.38;;
25962;SDS011;13760;52.588;13.406;2023-04-16T07:58:59;105.40;;;44.25;;
25962;SDS011;13760;52.588;13.406;2023-04-16T08:01:25;101.78;;;43.00;;
25962;SDS011;13760;52.588;13.406;2023-04-16T08:03:51;95.70;;;41.90;;
25962;SDS011;13760;52.588;13.406;2023-04-16T08:06:16;102.72;;;42.72;;
25962;SDS011;13760;52.588;13.406;2023-04-16T08:08:45;103.25;;;42.78;;
25962;SDS011;13760;52.588;13.406;2023-04-16T08:11:10;97.80;;;42.03;;
25962;SDS011;13760;52.588;13.406;2023-04-16T08:13:39;100.43;;;42.00;;
25962;SDS011;13760;52.588;13.406;2023-04-16T08:16:08;92.88;;;40.17;;
25962;SDS011;13760;52.588;13.406;2023-04-16T08:18:33;98.78;;;42.05;;
25962;SDS011;13760;52.588;13.406;2023-04-16T08:21:02;94.22;;;40.10;;
25962;SDS011;13760;52.588;13.406;2023-04-16T08:23:27;85.70;;;38.92;;
25962;SDS011;13760;52.588;13.406;2023-04-16T08:25:53;93.78;;;40.40;;
25962;SDS011;13760;52.588;13.406;2023-04-16T08:28:19;92.38;;;39.78;;
25962;SDS011;13760;52.588;13.406;2023-04-16T08:30:48;97.45;;;40.85;;
25962;SDS011;13760;52.588;13.406;2023-04-16T08:33:17;85.18;;;39.55;;
25962;SDS011;13760;52.588;13.406;2023-04-16T08:35:46;91.43;;;41.30;;
25962;SDS011;13760;52.588;13.406;2023-04-16T08:38:12;92.53;;;41.88;;
25962;SDS011;13760;52.588;13.406;2023-04-16T08:40:38;88.55;;;40.90;;
25962;SDS011;13760;52.588;13.406;2023-04-16T08:43:08;83.95;;;39.67;;
25962;SDS011;13760;52.588;13.406;2023-04-16T08:45:37;99.90;;;40.75;;
25962;SDS011;13760;52.588;13.406;2023-04-16T08:48:06;100.63;;;42.13;;
25962;SDS011;13760;52.588;13.406;2023-04-16T08:50:32;97.97;;;41.33;;
25962;SDS011;13760;52.588;13.406;2023-04-16T08:52:59;93.82;;;41.25;;
25962;SDS011;13760;52.588;13.406;2023-04-16T08:55:30;96.15;;;41.78;;
25962;SDS011;13760;52.588;13.406;2023-04-16T09:00:28;65.18;;;33.33;;
25962;SDS011;13760;52.588;13.406;2023-04-16T09:02:57;69.60;;;34.35;;
25962;SDS011;13760;52.588;13.406;2023-04-16T09:05:23;57.03;;;31.92;;
25962;SDS011;13760;52.588;13.406;2023-04-16T09:07:50;70.20;;;34.55;;
25962;SDS011;13760;52.588;13.406;2023-04-16T09:10:17;52.42;;;31.20;;
25962;SDS011;13760;52.588;13.406;2023-04-16T09:12:43;58.72;;;31.35;;
25962;SDS011;13760;52.588;13.406;2023-04-16T09:15:10;57.97;;;30.27;;
25962;SDS011;13760;52.588;13.406;2023-04-16T09:17:37;57.75;;;31.85;;
25962;SDS011;13760;52.588;13.406;2023-04-16T09:20:07;54.83;;;31.45;;
25962;SDS011;13760;52.588;13.406;2023-04-16T09:22:35;58.03;;;33.17;;
25962;SDS011;13760;52.588;13.406;2023-04-16T09:25:00;61.67;;;32.95;;
25962;SDS011;13760;52.588;13.406;2023-04-16T09:27:26;61.30;;;33.50;;
25962;SDS011;13760;52.588;13.406;2023-04-16T09:32:23;63.72;;;33.50;;
25962;SDS011;13760;52.588;13.406;2023-04-16T09:37:18;65.05;;;34.58;;
25962;SDS011;13760;52.588;13.406;2023-04-16T09:40:00;68.28;;;35.65;;
25962;SDS011;13760;52.588;13.406;2023-04-16T09:42:48;82.03;;;38.55;;
25962;SDS011;13760;52.588;13.406;2023-04-16T09:45:33;71.03;;;36.50;;
25962;SDS011;13760;52.588;13.406;2023-04-16T09:51:19;68.65;;;35.55;;
25962;SDS011;13760;52.588;13.406;2023-04-16T09:53:51;73.35;;;38.30;;
25962;SDS011;13760;52.588;13.406;2023-04-16T09:56:18;77.95;;;38.55;;
25962;SDS011;13760;52.588;13.406;2023-04-16T09:58:55;79.13;;;39.25;;
25962;SDS011;13760;52.588;13.406;2023-04-16T10:01:26;75.78;;;38.97;;
25962;SDS011;13760;52.588;13.406;2023-04-16T10:03:54;69.65;;;38.63;;
25962;SDS011;13760;52.588;13.406;2023-04-16T10:06:23;74.70;;;39.17;;
25962;SDS011;13760;52.588;13.406;2023-04-16T10:08:57;68.72;;;38.95;;
25962;SDS011;13760;52.588;13.406;2023-04-16T10:11:29;69.47;;;38.22;;
25962;SDS011;13760;52.588;13.406;2023-04-16T10:13:59;64.30;;;38.28;;
25962;SDS011;13760;52.588;13.406;2023-04-16T10:16:25;72.05;;;39.22;;
25962;SDS011;13760;52.588;13.406;2023-04-16T10:18:51;66.63;;;37.30;;
25962;SDS011;13760;52.588;13.406;2023-04-16T10:21:20;71.65;;;39.33;;
25962;SDS011;13760;52.588;13.406;2023-04-16T10:23:47;64.60;;;38.33;;
25962;SDS011;13760;52.588;13.406;2023-04-16T10:26:13;62.85;;;38.10;;
25962;SDS011;13760;52.588;13.406;2023-04-16T10:28:42;62.75;;;37.75;;
25962;SDS011;13760;52.588;13.406;2023-04-16T10:31:12;61.42;;;37.00;;
25962;SDS011;13760;52.588;13.406;2023-04-16T10:33:38;61.10;;;36.65;;
25962;SDS011;13760;52.588;13.406;2023-04-16T10:36:06;60.65;;;39.00;;
25962;SDS011;13760;52.588;13.406;2023-04-16T10:38:39;66.18;;;40.63;;
25962;SDS011;13760;52.588;13.406;2023-04-16T10:41:08;60.65;;;38.67;;
25962;SDS011;13760;52.588;13.406;2023-04-16T10:43:38;50.65;;;36.47;;
25962;SDS011;13760;52.588;13.406;2023-04-16T10:46:25;51.60;;;35.97;;
25962;SDS011;13760;52.588;13.406;2023-04-16T10:48:59;58.28;;;36.20;;
25962;SDS011;13760;52.588;13.406;2023-04-16T10:51:29;55.42;;;37.28;;
25962;SDS011;13760;52.588;13.406;2023-04-16T10:56:39;52.22;;;34.15;;
25962;SDS011;13760;52.588;13.406;2023-04-16T10:59:09;43.03;;;32.22;;
25962;SDS011;13760;52.588;13.406;2023-04-16T11:01:35;42.05;;;31.67;;
25962;SDS011;13760;52.588;13.406;2023-04-16T11:07:22;42.88;;;32.78;;
25962;SDS011;13760;52.588;13.406;2023-04-16T11:10:20;40.08;;;31.80;;
25962;SDS011;13760;52.588;13.406;2023-04-16T11:12:45;40.90;;;32.10;;
25962;SDS011;13760;52.588;13.406;2023-04-16T11:15:12;40.45;;;31.65;;
25962;SDS011;13760;52.588;13.406;2023-04-16T11:20:22;35.47;;;26.42;;
25962;SDS011;13760;52.588;13.406;2023-04-16T11:22:50;33.85;;;25.27;;
25962;SDS011;13760;52.588;13.406;2023-04-16T11:25:20;33.60;;;25.75;;
25962;SDS011;13760;52.588;13.406;2023-04-16T11:27:50;32.72;;;24.13;;
25962;SDS011;13760;52.588;13.406;2023-04-16T11:33:31;30.65;;;22.50;;
25962;SDS011;13760;52.588;13.406;2023-04-16T11:36:19;28.30;;;22.45;;
25962;SDS011;13760;52.588;13.406;2023-04-16T11:39:06;26.17;;;22.27;;
25962;SDS011;13760;52.588;13.406;2023-04-16T11:42:21;25.60;;;22.08;;
25962;SDS011;13760;52.588;13.406;2023-04-16T11:44:51;29.77;;;22.85;;
25962;SDS011;13760;52.588;13.406;2023-04-16T11:47:22;27.83;;;22.80;;
25962;SDS011;13760;52.588;13.406;2023-04-16T11:49:51;29.10;;;22.67;;
25962;SDS011;13760;52.588;13.406;2023-04-16T11:52:32;28.20;;;22.10;;
25962;SDS011;13760;52.588;13.406;2023-04-16T11:55:03;27.52;;;21.65;;
25962;SDS011;13760;52.588;13.406;2023-04-16T11:58:04;26.55;;;21.80;;
25962;SDS011;13760;52.588;13.406;2023-04-16T12:00:36;23.35;;;19.88;;
25962;SDS011;13760;52.588;13.406;2023-04-16T12:03:08;24.30;;;19.40;;
25962;SDS011;13760;52.588;13.406;2023-04-16T12:05:35;23.00;;;18.75;;
25962;SDS011;13760;52.588;13.406;2023-04-16T12:08:15;24.40;;;19.05;;
25962;SDS011;13760;52.588;13.406;2023-04-16T12:10:54;22.55;;;19.15;;
25962;SDS011;13760;52.588;13.406;2023-04-16T12:13:20;23.02;;;18.58;;
25962;SDS011;13760;52.588;13.406;2023-04-16T12:15:46;25.77;;;19.55;;
25962;SDS011;13760;52.588;13.406;2023-04-16T12:18:20;30.67;;;20.75;;
25962;SDS011;13760;52.588;13.406;2023-04-16T12:20:47;26.40;;;20.40;;
25962;SDS011;13760;52.588;13.406;2023-04-16T12:23:28;23.70;;;19.77;;
25962;SDS011;13760;52.588;13.406;2023-04-16T12:25:58;24.50;;;18.92;;
25962;SDS011;13760;52.588;13.406;2023-04-16T12:28:35;26.65;;;20.30;;
25962;SDS011;13760;52.588;13.406;2023-04-16T12:31:02;26.60;;;20.58;;
25962;SDS011;13760;52.588;13.406;2023-04-16T12:33:28;23.27;;;19.23;;
25962;SDS011;13760;52.588;13.406;2023-04-16T12:35:55;24.58;;;18.48;;
25962;SDS011;13760;52.588;13.406;2023-04-16T12:38:21;26.73;;;18.83;;
25962;SDS011;13760;52.588;13.406;2023-04-16T12:40:50;23.35;;;18.10;;
25962;SDS011;13760;52.588;13.406;2023-04-16T12:43:16;23.45;;;18.52;;
25962;SDS011;13760;52.588;13.406;2023-04-16T12:45:42;24.55;;;18.73;;
25962;SDS011;13760;52.588;13.406;2023-04-16T12:48:07;27.23;;;19.00;;
25962;SDS011;13760;52.588;13.406;2023-04-16T12:50:34;24.67;;;18.67;;
25962;SDS011;13760;52.588;13.406;2023-04-16T12:53:00;28.77;;;19.60;;
25962;SDS011;13760;52.588;13.406;2023-04-16T12:55:31;25.65;;;18.10;;
25962;SDS011;13760;52.588;13.406;2023-04-16T12:58:05;27.48;;;19.55;;
25962;SDS011;13760;52.588;13.406;2023-04-16T13:00:33;22.67;;;18.30;;
25962;SDS011;13760;52.588;13.406;2023-04-16T13:03:02;22.10;;;18.02;;
25962;SDS011;13760;52.588;13.406;2023-04-16T13:05:28;27.05;;;20.20;;
25962;SDS011;13760;52.588;13.406;2023-04-16T13:07:54;24.83;;;18.77;;
25962;SDS011;13760;52.588;13.406;2023-04-16T13:10:20;23.25;;;18.20;;
25962;SDS011;13760;52.588;13.406;2023-04-16T13:12:50;24.00;;;18.85;;
25962;SDS011;13760;52.588;13.406;2023-04-16T13:15:16;25.15;;;17.80;;
25962;SDS011;13760;52.588;13.406;2023-04-16T13:17:44;26.83;;;19.55;;
25962;SDS011;13760;52.588;13.406;2023-04-16T13:20:13;24.88;;;19.00;;
25962;SDS011;13760;52.588;13.406;2023-04-16T13:22:39;26.50;;;19.02;;
25962;SDS011;13760;52.588;13.406;2023-04-16T13:25:05;25.20;;;18.00;;
25962;SDS011;13760;52.588;13.406;2023-04-16T13:27:31;20.73;;;16.58;;
25962;SDS011;13760;52.588;13.406;2023-04-16T13:29:56;23.15;;;17.05;;
25962;SDS011;13760;52.588;13.406;2023-04-16T13:32:22;20.42;;;16.55;;
25962;SDS011;13760;52.588;13.406;2023-04-16T13:34:48;23.73;;;16.77;;
25962;SDS011;13760;52.588;13.406;2023-04-16T13:37:16;22.80;;;17.38;;
25962;SDS011;13760;52.588;13.406;2023-04-16T13:39:42;20.45;;;15.75;;
25962;SDS011;13760;52.588;13.406;2023-04-16T13:42:09;22.45;;;15.65;;
25962;SDS011;13760;52.588;13.406;2023-04-16T13:44:36;18.08;;;15.15;;
25962;SDS011;13760;52.588;13.406;2023-04-16T13:47:03;17.60;;;14.02;;
25962;SDS011;13760;52.588;13.406;2023-04-16T13:49:29;16.95;;;14.50;;
25962;SDS011;13760;52.588;13.406;2023-04-16T13:51:59;15.43;;;12.90;;
25962;SDS011;13760;52.588;13.406;2023-04-16T13:54:25;18.27;;;13.20;;
25962;SDS011;13760;52.588;13.406;2023-04-16T13:56:54;15.52;;;12.85;;
25962;SDS011;13760;52.588;13.406;2023-04-16T13:59:20;18.42;;;12.95;;
25962;SDS011;13760;52.588;13.406;2023-04-16T14:01:48;15.38;;;13.02;;
25962;SDS011;13760;52.588;13.406;2023-04-16T14:04:18;14.13;;;12.23;;
25962;SDS011;13760;52.588;13.406;2023-04-16T14:07:15;14.07;;;12.02;;
25962;SDS011;13760;52.588;13.406;2023-04-16T14:09:46;15.48;;;13.00;;
25962;SDS011;13760;52.588;13.406;2023-04-16T14:12:20;15.30;;;13.05;;
25962;SDS011;13760;52.588;13.406;2023-04-16T14:14:49;14.27;;;11.27;;
25962;SDS011;13760;52.588;13.406;2023-04-16T14:17:23;16.30;;;11.52;;
25962;SDS011;13760;52.588;13.406;2023-04-16T14:19:58;15.52;;;11.32;;
25962;SDS011;13760;52.588;13.406;2023-04-16T14:22:23;15.93;;;11.88;;
25962;SDS011;13760;52.588;13.406;2023-04-16T14:24:52;13.10;;;10.93;;
25962;SDS011;13760;52.588;13.406;2023-04-16T14:27:21;14.98;;;9.90;;
25962;SDS011;13760;52.588;13.406;2023-04-16T14:29:53;14.38;;;10.07;;
25962;SDS011;13760;52.588;13.406;2023-04-16T14:34:57;12.75;;;9.65;;
25962;SDS011;13760;52.588;13.406;2023-04-16T14:37:23;14.73;;;10.05;;
25962;SDS011;13760;52.588;13.406;2023-04-16T14:39:51;13.70;;;9.48;;
25962;SDS011;13760;52.588;13.406;2023-04-16T14:42:18;14.10;;;10.43;;
25962;SDS011;13760;52.588;13.406;2023-04-16T14:47:49;17.65;;;11.00;;
25962;SDS011;13760;52.588;13.406;2023-04-16T14:53:02;12.27;;;9.85;;